createdAt,value
2022-11-24T00:00:36.059Z,96.56
2022-11-24T00:01:36.048Z,96.36
2022-11-24T00:02:36.146Z,96.05
2022-11-24T00:03:36.164Z,96.47
2022-11-24T00:04:36.342Z,96.51
2022-11-24T00:05:36.017Z,96.51
2022-11-24T00:06:36.008Z,96.51
2022-11-24T00:07:36.099Z,96.56
2022-11-24T00:08:35.995Z,96.41
2022-11-24T00:09:35.997Z,96.72
2022-11-24T00:10:35.969Z,96.30
2022-11-24T00:11:35.976Z,96.20
2022-11-24T00:12:35.965Z,96.30
2022-11-24T00:13:35.959Z,96.51
2022-11-24T00:14:36.132Z,96.55
2022-11-24T00:15:36.929Z,96.30
2022-11-24T00:16:35.989Z,96.30
2022-11-24T00:17:35.910Z,96.30
2022-11-24T00:18:35.906Z,96.86
2022-11-24T00:19:35.905Z,97.17
2022-11-24T00:20:35.885Z,97.38
2022-11-24T00:21:35.873Z,97.59
2022-11-24T00:22:35.863Z,97.17
2022-11-24T00:23:35.862Z,97.89
2022-11-24T00:24:36.016Z,97.49
2022-11-24T00:25:35.839Z,98.00
2022-11-24T00:26:35.834Z,97.69
2022-11-24T00:27:35.818Z,97.89
2022-11-24T00:28:36.820Z,97.89
2022-11-24T00:29:35.804Z,98.31
2022-11-24T00:30:35.819Z,97.96
2022-11-24T00:31:35.875Z,98.21
2022-11-24T00:32:35.773Z,97.96
2022-11-24T00:33:35.765Z,97.79
2022-11-24T00:34:35.979Z,98.16
2022-11-24T00:35:35.747Z,97.75
2022-11-24T00:36:35.749Z,97.75
2022-11-24T00:37:35.746Z,97.96
2022-11-24T00:38:35.723Z,97.96
2022-11-24T00:39:35.723Z,97.85
2022-11-24T00:40:35.706Z,98.37
2022-11-24T00:41:35.693Z,98.47
2022-11-24T00:42:35.686Z,98.27
2022-11-24T00:43:35.679Z,97.85
2022-11-24T00:44:35.803Z,97.64
2022-11-24T00:45:35.700Z,98.27
2022-11-24T00:46:35.825Z,98.37
2022-11-24T00:47:35.639Z,98.47
2022-11-24T00:48:35.634Z,98.37
2022-11-24T00:49:35.632Z,98.22
2022-11-24T00:50:35.625Z,98.16
2022-11-24T00:51:35.606Z,98.16
2022-11-24T00:52:35.598Z,98.01
2022-11-24T00:53:35.590Z,97.71
2022-11-24T00:54:35.776Z,97.71
2022-11-24T00:55:35.569Z,97.91
2022-11-24T00:56:35.561Z,97.39
2022-11-24T00:57:35.553Z,97.81
2022-11-24T00:58:35.550Z,97.81
2022-11-24T00:59:35.546Z,97.19
2022-11-24T01:00:35.546Z,97.50
2022-11-24T01:01:35.615Z,97.91
2022-11-24T01:02:35.597Z,97.91
2022-11-24T01:03:35.501Z,97.64
2022-11-24T01:04:35.913Z,98.11
2022-11-24T01:05:35.477Z,98.01
2022-11-24T01:06:35.473Z,98.16
2022-11-24T01:07:35.486Z,98.32
2022-11-24T01:08:35.452Z,98.32
2022-11-24T01:09:35.471Z,97.91
2022-11-24T01:10:35.447Z,98.43
2022-11-24T01:11:35.428Z,97.91
2022-11-24T01:12:35.423Z,98.11
2022-11-24T01:13:35.413Z,98.32
2022-11-24T01:14:35.853Z,98.11
2022-11-24T01:15:35.434Z,97.60
2022-11-24T01:16:35.389Z,97.66
2022-11-24T01:17:35.377Z,97.71
2022-11-24T01:18:35.374Z,97.66
2022-11-24T01:19:35.373Z,97.86
2022-11-24T01:20:35.377Z,97.66
2022-11-24T01:21:35.349Z,97.76
2022-11-24T01:22:35.334Z,97.60
2022-11-24T01:23:35.324Z,97.55
2022-11-24T01:24:35.665Z,97.86
2022-11-24T01:25:35.303Z,97.45
2022-11-24T01:26:35.295Z,97.19
2022-11-24T01:27:35.285Z,97.45
2022-11-24T01:28:35.277Z,97.81
2022-11-24T01:29:35.284Z,97.14
2022-11-24T01:30:35.310Z,97.66
2022-11-24T01:31:35.250Z,97.14
2022-11-24T01:32:35.240Z,97.66
2022-11-24T01:33:35.232Z,97.60
2022-11-24T01:34:35.523Z,97.66
2022-11-24T01:35:35.211Z,97.86
2022-11-24T01:36:35.206Z,97.66
2022-11-24T01:37:35.197Z,97.66
2022-11-24T01:38:35.180Z,97.39
2022-11-24T01:39:36.190Z,97.08
2022-11-24T01:40:35.224Z,97.71
2022-11-24T01:41:35.162Z,97.50
2022-11-24T01:42:35.155Z,97.66
2022-11-24T01:43:35.141Z,97.60
2022-11-24T01:44:35.388Z,97.60
2022-11-24T01:45:35.130Z,97.50
2022-11-24T01:46:35.203Z,97.60
2022-11-24T01:47:35.110Z,97.91
2022-11-24T01:48:35.098Z,97.50
2022-11-24T01:49:35.100Z,98.32
2022-11-24T01:50:35.103Z,98.32
2022-11-24T01:51:35.072Z,98.28
2022-11-24T01:52:35.061Z,97.71
2022-11-24T01:53:35.052Z,99.05
2022-11-24T01:54:35.290Z,98.94
2022-11-24T01:55:35.037Z,98.94
2022-11-24T01:56:35.024Z,98.94
2022-11-24T01:57:35.019Z,99.30
2022-11-24T01:58:35.014Z,99.30
2022-11-24T01:59:35.013Z,99.25
2022-11-24T02:00:34.994Z,98.94
2022-11-24T02:01:35.055Z,99.30
2022-11-24T02:02:35.040Z,99.15
2022-11-24T02:03:34.969Z,99.15
2022-11-24T02:04:35.186Z,98.63
2022-11-24T02:05:34.949Z,98.74
2022-11-24T02:06:34.961Z,99.15
2022-11-24T02:07:34.961Z,99.05
2022-11-24T02:08:34.920Z,99.35
2022-11-24T02:09:34.947Z,99.35
2022-11-24T02:10:34.923Z,99.61
2022-11-24T02:11:34.888Z,99.66
2022-11-24T02:12:34.888Z,99.77
2022-11-24T02:13:34.873Z,99.77
2022-11-24T02:14:35.080Z,99.56
2022-11-24T02:15:34.897Z,99.15
2022-11-24T02:16:34.848Z,99.56
2022-11-24T02:17:34.853Z,99.77
2022-11-24T02:18:34.835Z,99.98
2022-11-24T02:19:34.833Z,99.99
2022-11-24T02:20:34.815Z,99.99
2022-11-24T02:21:34.825Z,99.99
2022-11-24T02:22:34.794Z,99.99
2022-11-24T02:23:34.785Z,99.99
2022-11-24T02:24:35.073Z,99.99
2022-11-24T02:25:34.765Z,99.99
2022-11-24T02:26:34.763Z,99.66
2022-11-24T02:27:34.745Z,99.72
2022-11-24T02:28:34.736Z,99.56
2022-11-24T02:29:34.742Z,99.46
2022-11-24T02:30:34.721Z,99.35
2022-11-24T02:31:34.748Z,99.77
2022-11-24T02:32:34.701Z,99.66
2022-11-24T02:33:34.690Z,99.77
2022-11-24T02:34:35.097Z,99.62
2022-11-24T02:35:34.679Z,99.99
2022-11-24T02:36:34.677Z,99.99
2022-11-24T02:37:34.659Z,99.99
2022-11-24T02:38:34.651Z,99.99
2022-11-24T02:39:34.653Z,99.99
2022-11-24T02:40:34.666Z,99.99
2022-11-24T02:41:34.620Z,99.99
2022-11-24T02:42:34.615Z,99.99
2022-11-24T02:43:34.609Z,99.99
2022-11-24T02:44:34.830Z,99.99
2022-11-24T02:45:34.586Z,99.99
2022-11-24T02:46:34.605Z,99.99
2022-11-24T02:47:34.567Z,99.99
2022-11-24T02:48:34.555Z,99.99
2022-11-24T02:49:34.563Z,99.99
2022-11-24T02:50:34.553Z,99.99
2022-11-24T02:51:34.536Z,99.99
2022-11-24T02:52:34.524Z,99.99
2022-11-24T02:53:34.516Z,99.99
2022-11-24T02:54:34.774Z,99.99
2022-11-24T02:55:34.499Z,99.99
2022-11-24T02:56:34.490Z,99.99
2022-11-24T02:57:34.486Z,99.99
2022-11-24T02:58:34.472Z,99.99
2022-11-24T02:59:34.553Z,99.99
2022-11-24T03:00:34.459Z,99.82
2022-11-24T03:01:34.527Z,99.99
2022-11-24T03:02:34.455Z,99.99
2022-11-24T03:03:35.423Z,99.82
2022-11-24T03:04:34.658Z,99.99
2022-11-24T03:05:34.407Z,99.99
2022-11-24T03:06:34.400Z,99.93
2022-11-24T03:07:34.425Z,99.99
2022-11-24T03:08:34.382Z,99.99
2022-11-24T03:09:34.384Z,99.99
2022-11-24T03:10:34.384Z,99.99
2022-11-24T03:11:34.357Z,99.99
2022-11-24T03:12:34.364Z,99.99
2022-11-24T03:13:34.338Z,99.99
2022-11-24T03:14:34.486Z,99.99
2022-11-24T03:15:34.386Z,99.99
2022-11-24T03:16:34.315Z,99.99
2022-11-24T03:17:34.307Z,99.99
2022-11-24T03:18:34.292Z,99.99
2022-11-24T03:19:34.298Z,99.99
2022-11-24T03:20:34.323Z,99.99
2022-11-24T03:21:34.266Z,99.99
2022-11-24T03:22:34.257Z,99.99
2022-11-24T03:23:34.251Z,99.99
2022-11-24T03:24:34.590Z,99.99
2022-11-24T03:25:34.225Z,99.99
2022-11-24T03:26:34.222Z,99.99
2022-11-24T03:27:34.213Z,99.99
2022-11-24T03:28:34.197Z,99.99
2022-11-24T03:29:35.207Z,99.99
2022-11-24T03:30:34.225Z,99.99
2022-11-24T03:31:34.243Z,99.99
2022-11-24T03:32:34.176Z,99.99
2022-11-24T03:33:34.163Z,99.99
2022-11-24T03:34:34.450Z,99.99
2022-11-24T03:35:34.146Z,99.99
2022-11-24T03:36:34.146Z,99.99
2022-11-24T03:37:34.128Z,99.99
2022-11-24T03:38:34.117Z,99.99
2022-11-24T03:39:34.120Z,99.99
2022-11-24T03:40:34.100Z,99.99
2022-11-24T03:41:34.092Z,99.99
2022-11-24T03:42:34.084Z,99.99
2022-11-24T03:43:37.827Z,99.99
2022-11-24T03:44:35.350Z,99.99
2022-11-24T03:45:49.312Z,99.99
2022-11-24T03:46:38.682Z,99.99
2022-11-24T03:47:34.042Z,99.99
2022-11-24T03:48:34.037Z,99.99
2022-11-24T03:49:34.302Z,99.99
2022-11-24T03:50:34.012Z,99.99
2022-11-24T03:51:34.005Z,99.99
2022-11-24T03:52:33.996Z,99.99
2022-11-24T03:53:34.008Z,99.99
2022-11-24T03:54:34.454Z,99.99
2022-11-24T03:55:33.971Z,99.99
2022-11-24T03:56:33.961Z,99.99
2022-11-24T03:57:33.951Z,99.99
2022-11-24T03:58:33.949Z,99.99
2022-11-24T03:59:33.942Z,99.99
2022-11-24T04:00:33.924Z,99.99
2022-11-24T04:01:33.996Z,99.99
2022-11-24T04:02:33.951Z,99.99
2022-11-24T04:03:33.896Z,99.99
2022-11-24T04:04:33.991Z,99.99
2022-11-24T04:05:33.874Z,99.99
2022-11-24T04:06:33.871Z,99.99
2022-11-24T04:07:33.906Z,99.99
2022-11-24T04:08:33.856Z,99.99
2022-11-24T04:09:33.851Z,99.99
2022-11-24T04:10:33.836Z,99.99
2022-11-24T04:11:33.828Z,99.99
2022-11-24T04:12:33.823Z,99.99
2022-11-24T04:13:33.813Z,99.99
2022-11-24T04:14:34.080Z,99.99
2022-11-24T04:15:33.789Z,99.99
2022-11-24T04:16:33.851Z,99.99
2022-11-24T04:17:33.773Z,99.99
2022-11-24T04:18:33.764Z,99.99
2022-11-24T04:19:33.769Z,99.99
2022-11-24T04:20:33.751Z,99.99
2022-11-24T04:21:33.734Z,99.99
2022-11-24T04:22:33.748Z,99.99
2022-11-24T04:23:33.720Z,99.99
2022-11-24T04:24:34.062Z,99.99
2022-11-24T04:25:33.717Z,99.99
2022-11-24T04:26:33.696Z,99.82
2022-11-24T04:27:33.686Z,99.82
2022-11-24T04:28:33.676Z,99.62
2022-11-24T04:29:33.685Z,99.62
2022-11-24T04:30:33.669Z,99.62
2022-11-24T04:31:33.670Z,99.52
2022-11-24T04:32:33.642Z,99.57
2022-11-24T04:33:33.637Z,99.26
2022-11-24T04:34:33.878Z,98.85
2022-11-24T04:35:33.623Z,98.75
2022-11-24T04:36:33.605Z,99.47
2022-11-24T04:37:33.592Z,99.37
2022-11-24T04:39:25.672Z,99.47
2022-11-24T04:39:34.574Z,98.85
2022-11-24T04:40:33.578Z,98.85
2022-11-24T04:41:33.557Z,99.16
2022-11-24T04:42:33.548Z,98.23
2022-11-24T04:43:39.164Z,98.75
2022-11-24T04:44:36.088Z,99.26
2022-11-24T04:45:33.533Z,99.16
2022-11-24T04:46:33.597Z,98.96
2022-11-24T04:47:33.518Z,98.85
2022-11-24T04:48:33.500Z,98.75
2022-11-24T04:49:33.495Z,99.06
2022-11-24T04:50:33.496Z,98.44
2022-11-24T04:51:33.484Z,98.96
2022-11-24T04:52:33.467Z,98.75
2022-11-24T04:53:33.463Z,99.26
2022-11-24T04:54:33.760Z,99.06
2022-11-24T04:55:33.455Z,99.37
2022-11-24T04:56:33.434Z,99.06
2022-11-24T04:57:33.429Z,99.06
2022-11-24T04:58:33.419Z,99.26
2022-11-24T04:59:33.405Z,98.54
2022-11-24T05:00:33.408Z,98.54
2022-11-24T05:01:33.419Z,98.70
2022-11-24T05:02:33.377Z,98.75
2022-11-24T05:03:33.366Z,98.85
2022-11-24T05:04:33.640Z,98.70
2022-11-24T05:05:33.365Z,99.06
2022-11-24T05:06:33.335Z,98.75
2022-11-24T05:07:33.481Z,99.01
2022-11-24T05:08:33.331Z,98.75
2022-11-24T05:09:58.164Z,98.85
2022-11-24T05:10:35.376Z,99.06
2022-11-24T05:11:33.294Z,98.96
2022-11-24T05:12:33.285Z,98.75
2022-11-24T05:13:33.270Z,98.75
2022-11-24T05:14:33.559Z,99.06
2022-11-24T05:15:33.271Z,99.47
2022-11-24T05:16:33.274Z,98.85
2022-11-24T05:17:33.269Z,99.10
2022-11-24T05:18:33.235Z,99.82
2022-11-24T05:19:33.221Z,99.52
2022-11-24T05:20:33.231Z,99.72
2022-11-24T05:21:33.209Z,99.41
2022-11-24T05:22:33.198Z,99.99
2022-11-24T05:23:33.185Z,99.99
2022-11-24T05:24:33.523Z,99.99
2022-11-24T05:25:33.197Z,99.99
2022-11-24T05:26:33.164Z,99.99
2022-11-24T05:27:33.156Z,99.78
2022-11-24T05:28:33.143Z,99.57
2022-11-24T05:29:33.135Z,99.57
2022-11-24T05:30:33.145Z,99.57
2022-11-24T05:31:33.149Z,99.78
2022-11-24T05:32:33.116Z,98.96
2022-11-24T05:33:33.105Z,99.11
2022-11-24T05:34:33.302Z,99.16
2022-11-24T05:35:33.097Z,98.96
2022-11-24T05:36:33.074Z,99.26
2022-11-24T05:37:33.067Z,99.16
2022-11-24T05:38:33.076Z,99.26
2022-11-24T05:39:33.046Z,98.65
2022-11-24T05:40:33.054Z,98.65
2022-11-24T05:41:33.029Z,99.16
2022-11-24T05:42:33.027Z,99.78
2022-11-24T05:43:33.022Z,99.88
2022-11-24T05:44:33.269Z,99.26
2022-11-24T05:45:33.006Z,98.96
2022-11-24T05:46:33.042Z,99.01
2022-11-24T05:47:32.980Z,99.11
2022-11-24T05:48:32.967Z,99.16
2022-11-24T05:49:32.958Z,98.65
2022-11-24T05:50:32.955Z,98.75
2022-11-24T05:51:32.932Z,99.26
2022-11-24T05:52:32.926Z,99.37
2022-11-24T05:53:32.912Z,98.96
2022-11-24T05:54:33.185Z,99.06
2022-11-24T05:55:32.908Z,98.85
2022-11-24T05:56:32.896Z,99.26
2022-11-24T05:57:32.879Z,98.75
2022-11-24T05:58:32.875Z,98.65
2022-11-24T05:59:32.864Z,98.75
2022-11-24T06:00:32.868Z,97.61
2022-11-24T06:01:32.869Z,97.92
2022-11-24T06:02:32.965Z,98.28
2022-11-24T06:03:32.830Z,99.00
2022-11-24T06:04:33.283Z,98.69
2022-11-24T06:05:32.820Z,98.69
2022-11-24T06:06:32.804Z,98.79
2022-11-24T06:07:32.865Z,98.90
2022-11-24T06:08:32.783Z,99.00
2022-11-24T06:09:32.776Z,99.10
2022-11-24T06:10:32.777Z,98.28
2022-11-24T06:11:32.752Z,98.28
2022-11-24T06:12:32.747Z,98.79
2022-11-24T06:13:32.819Z,98.58
2022-11-24T06:14:33.043Z,98.69
2022-11-24T06:15:32.727Z,98.18
2022-11-24T06:16:32.727Z,99.56
2022-11-24T06:17:33.701Z,98.84
2022-11-24T06:18:32.689Z,98.49
2022-11-24T06:19:32.681Z,99.25
2022-11-24T06:20:33.235Z,99.21
2022-11-24T06:21:33.663Z,98.84
2022-11-24T06:22:32.652Z,98.90
2022-11-24T06:23:32.644Z,99.52
2022-11-24T06:24:32.944Z,99.00
2022-11-24T06:25:32.638Z,99.10
2022-11-24T06:26:32.618Z,99.31
2022-11-24T06:27:32.611Z,98.90
2022-11-24T06:28:32.601Z,98.79
2022-11-24T06:29:32.593Z,99.10
2022-11-24T06:30:32.614Z,99.10
2022-11-24T06:31:32.637Z,97.97
2022-11-24T06:32:32.556Z,98.28
2022-11-24T06:33:32.556Z,97.86
2022-11-24T06:34:33.017Z,97.86
2022-11-24T06:35:32.558Z,98.18
2022-11-24T06:36:32.536Z,97.76
2022-11-24T06:37:32.518Z,97.55
2022-11-24T06:38:32.510Z,98.43
2022-11-24T06:39:32.498Z,98.69
2022-11-24T06:40:32.502Z,98.32
2022-11-24T06:41:32.484Z,98.49
2022-11-24T06:42:32.471Z,98.43
2022-11-24T06:43:32.466Z,98.28
2022-11-24T06:44:32.944Z,98.32
2022-11-24T06:45:32.523Z,98.07
2022-11-24T06:46:32.441Z,98.49
2022-11-24T06:47:32.429Z,98.69
2022-11-24T06:48:32.421Z,98.18
2022-11-24T06:49:32.417Z,98.01
2022-11-24T06:50:33.856Z,98.58
2022-11-24T06:51:33.405Z,97.86
2022-11-24T06:52:32.492Z,97.91
2022-11-24T06:53:32.375Z,99.15
2022-11-24T06:54:32.802Z,98.88
2022-11-24T06:55:32.385Z,98.53
2022-11-24T06:56:32.369Z,99.09
2022-11-24T06:57:32.350Z,99.35
2022-11-24T06:58:32.383Z,99.25
2022-11-24T06:59:32.325Z,99.21
2022-11-24T07:00:32.330Z,99.66
2022-11-24T07:01:32.378Z,99.25
2022-11-24T07:02:32.482Z,98.94
2022-11-24T07:03:32.435Z,99.21
2022-11-24T07:04:32.768Z,99.10
2022-11-24T07:05:32.285Z,99.31
2022-11-24T07:06:32.269Z,99.15
2022-11-24T07:07:32.329Z,99.05
2022-11-24T07:08:32.262Z,99.52
2022-11-24T07:09:32.241Z,98.69
2022-11-24T07:10:32.248Z,99.21
2022-11-24T07:11:32.259Z,98.79
2022-11-24T07:12:32.223Z,99.10
2022-11-24T07:13:32.217Z,98.28
2022-11-24T07:14:32.424Z,99.06
2022-11-24T07:15:32.218Z,99.47
2022-11-24T07:16:32.241Z,98.90
2022-11-24T07:17:32.177Z,99.37
2022-11-24T07:18:32.166Z,98.75
2022-11-24T07:19:32.159Z,98.75
2022-11-24T07:20:32.149Z,99.06
2022-11-24T07:21:32.154Z,97.82
2022-11-24T07:22:32.233Z,97.92
2022-11-24T07:23:32.127Z,98.13
2022-11-24T07:24:32.445Z,97.86
2022-11-24T07:25:32.152Z,97.61
2022-11-24T07:26:32.105Z,97.82
2022-11-24T07:27:32.089Z,98.02
2022-11-24T07:28:32.081Z,98.18
2022-11-24T07:29:32.154Z,99.21
2022-11-24T07:30:32.071Z,98.28
2022-11-24T07:31:32.109Z,99.21
2022-11-24T07:32:32.180Z,98.69
2022-11-24T07:33:32.036Z,99.37
2022-11-24T07:34:32.371Z,98.65
2022-11-24T07:35:32.186Z,98.75
2022-11-24T07:36:32.192Z,98.85
2022-11-24T07:37:32.152Z,99.06
2022-11-24T07:38:32.027Z,98.75
2022-11-24T07:39:32.016Z,99.47
2022-11-24T07:40:31.979Z,99.16
2022-11-24T07:41:31.978Z,99.37
2022-11-24T07:42:31.960Z,99.16
2022-11-24T07:43:31.968Z,99.16
2022-11-24T07:44:32.069Z,98.85
2022-11-24T07:45:31.991Z,98.96
2022-11-24T07:46:31.934Z,99.26
2022-11-24T07:47:31.919Z,99.16
2022-11-24T07:48:31.898Z,99.37
2022-11-24T07:49:32.896Z,99.06
2022-11-24T07:50:31.896Z,99.37
2022-11-24T07:51:31.891Z,99.57
2022-11-24T07:52:31.873Z,99.63
2022-11-24T07:53:31.863Z,99.11
2022-11-24T07:54:32.038Z,99.11
2022-11-24T07:55:31.852Z,98.80
2022-11-24T07:56:31.845Z,99.11
2022-11-24T07:57:31.846Z,98.80
2022-11-24T07:58:32.982Z,98.60
2022-11-24T07:59:32.814Z,99.01
2022-11-24T08:00:31.801Z,98.80
2022-11-24T08:01:31.908Z,99.11
2022-11-24T08:02:31.780Z,98.70
2022-11-24T08:03:31.966Z,98.91
2022-11-24T08:04:31.935Z,99.11
2022-11-24T08:05:31.758Z,99.07
2022-11-24T08:06:40.697Z,98.91
2022-11-24T08:07:33.784Z,99.01
2022-11-24T08:08:31.734Z,98.76
2022-11-24T08:09:31.724Z,99.17
2022-11-24T08:10:31.712Z,98.86
2022-11-24T08:11:31.762Z,98.76
2022-11-24T08:12:31.822Z,98.45
2022-11-24T08:13:31.684Z,98.76
2022-11-24T08:14:31.946Z,98.97
2022-11-24T08:15:31.826Z,99.38
2022-11-24T08:16:31.794Z,98.55
2022-11-24T08:17:31.716Z,99.27
2022-11-24T08:18:31.654Z,98.55
2022-11-24T08:19:31.634Z,99.07
2022-11-24T08:20:31.622Z,98.86
2022-11-24T08:21:31.618Z,99.33
2022-11-24T08:22:31.604Z,98.76
2022-11-24T08:23:31.595Z,98.71
2022-11-24T08:24:31.939Z,98.50
2022-11-24T08:25:31.595Z,98.71
2022-11-24T08:26:31.576Z,98.30
2022-11-24T08:27:31.563Z,98.61
2022-11-24T08:28:31.638Z,98.66
2022-11-24T08:29:31.543Z,98.86
2022-11-24T08:30:31.535Z,98.97
2022-11-24T08:31:31.586Z,98.91
2022-11-24T08:32:31.523Z,99.99
2022-11-24T08:33:31.506Z,99.84
2022-11-24T08:34:31.770Z,99.99
2022-11-24T08:35:31.497Z,99.99
2022-11-24T08:36:31.495Z,99.99
2022-11-24T08:37:31.472Z,99.99
2022-11-24T08:38:31.462Z,99.99
2022-11-24T08:39:31.486Z,99.99
2022-11-24T08:40:31.453Z,99.99
2022-11-24T08:41:31.468Z,99.99
2022-11-24T08:42:31.426Z,99.99
2022-11-24T08:43:31.419Z,99.99
2022-11-24T08:44:31.468Z,99.99
2022-11-24T08:45:34.305Z,99.99
2022-11-24T08:46:32.489Z,99.99
2022-11-24T08:47:31.385Z,99.99
2022-11-24T08:48:31.375Z,99.99
2022-11-24T08:49:31.363Z,99.99
2022-11-24T08:50:31.506Z,99.58
2022-11-24T08:51:31.398Z,99.99
2022-11-24T08:52:31.339Z,99.99
2022-11-24T08:53:31.343Z,99.64
2022-11-24T08:54:31.417Z,99.99
2022-11-24T08:55:31.306Z,99.99
2022-11-24T08:56:31.313Z,99.99
2022-11-24T08:57:31.291Z,99.99
2022-11-24T08:58:31.290Z,99.99
2022-11-24T08:59:31.410Z,99.99
2022-11-24T09:00:31.261Z,99.99
2022-11-24T09:01:31.356Z,99.99
2022-11-24T09:02:31.239Z,99.90
2022-11-24T09:03:31.232Z,99.90
2022-11-24T09:04:31.268Z,99.43
2022-11-24T09:06:00.023Z,99.49
2022-11-24T09:06:33.216Z,99.29
2022-11-24T09:07:31.277Z,99.24
2022-11-24T09:08:31.179Z,99.18
2022-11-24T09:09:31.173Z,98.93
2022-11-24T09:10:31.165Z,98.72
2022-11-24T09:11:31.163Z,98.42
2022-11-24T09:12:31.146Z,98.83
2022-11-24T09:13:31.139Z,98.62
2022-11-24T09:14:31.379Z,98.62
2022-11-24T09:15:31.113Z,98.32
2022-11-24T09:16:31.155Z,98.52
2022-11-24T09:17:31.104Z,99.14
2022-11-24T09:18:31.088Z,98.62
2022-11-24T09:19:31.170Z,98.93
2022-11-24T09:20:31.066Z,98.83
2022-11-24T09:21:31.075Z,98.52
2022-11-24T09:22:31.045Z,98.15
2022-11-24T09:23:31.038Z,98.88
2022-11-24T09:24:31.024Z,98.93
2022-11-24T09:25:31.046Z,98.62
2022-11-24T09:26:31.026Z,99.04
2022-11-24T09:27:30.996Z,98.72
2022-11-24T09:28:30.994Z,98.93
2022-11-24T09:29:31.001Z,98.93
2022-11-24T09:30:31.055Z,98.62
2022-11-24T09:31:31.035Z,98.88
2022-11-24T09:32:30.949Z,98.32
2022-11-24T09:33:30.948Z,98.68
2022-11-24T09:34:30.938Z,98.88
2022-11-24T09:35:30.925Z,99.30
2022-11-24T09:36:30.926Z,98.21
2022-11-24T09:37:32.804Z,98.47
2022-11-24T09:38:31.891Z,98.37
2022-11-24T09:39:30.889Z,98.16
2022-11-24T09:40:30.878Z,98.16
2022-11-24T09:41:30.876Z,98.37
2022-11-24T09:42:30.866Z,98.79
2022-11-24T09:43:30.876Z,98.37
2022-11-24T09:44:30.843Z,98.53
2022-11-24T09:46:03.333Z,98.27
2022-11-24T09:46:32.955Z,98.47
2022-11-24T09:47:30.921Z,98.58
2022-11-24T09:48:30.801Z,98.68
2022-11-24T09:49:30.798Z,98.27
2022-11-24T09:50:30.783Z,98.27
2022-11-24T09:51:30.782Z,98.33
2022-11-24T09:52:30.762Z,98.22
2022-11-24T09:53:30.750Z,98.53
2022-11-24T09:54:30.744Z,98.74
2022-11-24T09:55:30.731Z,98.63
2022-11-24T09:56:30.730Z,98.63
2022-11-24T09:57:35.808Z,98.12
2022-11-24T09:58:32.708Z,97.71
2022-11-24T09:59:30.688Z,98.22
2022-11-24T10:00:30.666Z,96.99
2022-11-24T10:01:31.747Z,97.61
2022-11-24T10:02:30.657Z,97.40
2022-11-24T10:03:30.647Z,97.19
2022-11-24T10:04:30.805Z,97.61
2022-11-24T10:05:30.633Z,97.91
2022-11-24T10:06:30.639Z,97.81
2022-11-24T10:07:30.682Z,97.81
2022-11-24T10:08:30.607Z,98.22
2022-11-24T10:09:30.599Z,98.63
2022-11-24T10:10:30.598Z,97.87
2022-11-24T10:11:30.591Z,97.56
2022-11-24T10:12:30.572Z,97.81
2022-11-24T10:13:30.577Z,97.45
2022-11-24T10:14:30.612Z,97.77
2022-11-24T10:15:30.596Z,98.54
2022-11-24T10:16:30.587Z,97.82
2022-11-24T10:17:30.525Z,97.31
2022-11-24T10:18:30.519Z,97.20
2022-11-24T10:19:37.019Z,97.37
2022-11-24T10:20:32.500Z,96.75
2022-11-24T10:21:30.502Z,97.20
2022-11-24T10:22:30.479Z,95.72
2022-11-24T10:23:31.314Z,96.23
2022-11-24T10:24:30.456Z,95.72
2022-11-24T10:25:30.449Z,95.93
2022-11-24T10:26:30.446Z,96.14
2022-11-24T10:27:30.427Z,95.17
2022-11-24T10:28:30.416Z,94.70
2022-11-24T10:29:30.408Z,94.70
2022-11-24T10:30:30.396Z,94.49
2022-11-24T10:31:30.464Z,94.14
2022-11-24T10:32:30.377Z,94.39
2022-11-24T10:33:31.112Z,93.77
2022-11-24T10:34:31.397Z,94.08
2022-11-24T10:35:30.379Z,94.29
2022-11-24T10:36:30.355Z,93.98
2022-11-24T10:37:30.413Z,94.49
2022-11-24T10:38:30.319Z,94.33
2022-11-24T10:39:30.312Z,94.39
2022-11-24T10:40:56.007Z,94.18
2022-11-24T10:41:32.305Z,94.34
2022-11-24T10:42:30.281Z,93.93
2022-11-24T10:43:30.268Z,94.24
2022-11-24T10:44:31.342Z,94.45
2022-11-24T10:45:30.251Z,94.20
2022-11-24T10:46:33.661Z,94.20
2022-11-24T10:47:32.237Z,93.95
2022-11-24T10:48:30.225Z,93.95
2022-11-24T10:49:30.324Z,93.64
2022-11-24T10:50:30.206Z,92.86
2022-11-24T10:51:30.211Z,92.31
2022-11-24T10:52:30.181Z,92.93
2022-11-24T10:53:30.198Z,92.21
2022-11-24T10:54:30.177Z,92.51
2022-11-24T10:55:30.199Z,92.51
2022-11-24T10:56:30.159Z,92.61
2022-11-24T10:57:30.179Z,92.57
2022-11-24T10:58:35.869Z,91.65
2022-11-24T10:59:32.560Z,90.83
2022-11-24T11:00:30.123Z,91.35
2022-11-24T11:01:30.253Z,90.52
2022-11-24T11:02:30.237Z,91.08
2022-11-24T11:03:30.122Z,90.73
2022-11-24T11:04:30.078Z,91.14
2022-11-24T11:05:30.070Z,91.65
2022-11-24T11:06:30.093Z,91.50
2022-11-24T11:07:30.100Z,91.50
2022-11-24T11:08:30.045Z,91.87
2022-11-24T11:09:30.029Z,92.08
2022-11-24T11:10:30.024Z,90.64
2022-11-24T11:11:30.100Z,90.03
2022-11-24T11:12:44.993Z,89.21
2022-11-24T11:13:31.996Z,89.00
2022-11-24T11:14:29.982Z,88.59
2022-11-24T11:15:30.107Z,88.80
2022-11-24T11:16:30.016Z,89.21
2022-11-24T11:17:29.987Z,90.23
2022-11-24T11:18:29.969Z,89.11
2022-11-24T11:20:31.931Z,88.94
2022-11-24T11:21:29.982Z,89.04
2022-11-24T11:22:29.948Z,88.74
2022-11-24T11:23:29.969Z,88.94
2022-11-24T11:24:29.897Z,89.04
2022-11-24T11:25:29.937Z,89.15
2022-11-24T11:26:29.968Z,88.47
2022-11-24T11:27:29.866Z,88.27
2022-11-24T11:28:29.903Z,88.68
2022-11-24T11:31:31.834Z,89.29
2022-11-24T11:34:31.793Z,89.29
2022-11-24T11:35:29.776Z,89.39
2022-11-24T11:36:29.768Z,89.60
2022-11-24T11:37:29.767Z,89.29
2022-11-24T11:38:29.760Z,88.27
2022-11-24T11:39:29.736Z,88.10
2022-11-24T11:40:29.749Z,87.85
2022-11-24T11:41:29.742Z,88.31
2022-11-24T11:43:00.823Z,88.41
2022-11-24T11:43:31.699Z,89.23
2022-11-24T11:44:29.691Z,89.13
2022-11-24T11:45:29.688Z,89.23
2022-11-24T11:46:29.703Z,90.16
2022-11-24T11:47:29.658Z,89.33
2022-11-24T11:48:32.484Z,88.76
2022-11-24T11:49:30.629Z,89.03
2022-11-24T11:50:29.640Z,89.33
2022-11-24T11:51:29.795Z,89.09
2022-11-24T11:52:29.619Z,88.78
2022-11-24T11:53:29.591Z,89.09
2022-11-24T11:54:29.580Z,88.74
2022-11-24T11:55:29.569Z,88.64
2022-11-24T11:56:29.570Z,87.67
2022-11-24T11:57:29.564Z,86.96
2022-11-24T11:58:29.556Z,88.80
2022-11-24T11:59:29.537Z,88.59
2022-11-24T12:00:29.526Z,88.76
2022-11-24T12:01:29.516Z,87.73
2022-11-24T12:02:29.665Z,87.63
2022-11-24T12:03:29.594Z,88.45
2022-11-24T12:04:29.496Z,88.04
2022-11-24T12:05:29.481Z,87.84
2022-11-24T12:06:29.471Z,86.81
2022-11-24T12:07:29.516Z,85.38
2022-11-24T12:08:31.321Z,85.22
2022-11-24T12:09:30.445Z,84.36
2022-11-24T12:10:29.433Z,84.46
2022-11-24T12:11:29.432Z,84.50
2022-11-24T12:12:29.434Z,85.01
2022-11-24T12:13:29.412Z,84.70
2022-11-24T12:14:29.402Z,85.28
2022-11-24T12:15:29.393Z,84.66
2022-11-24T12:16:29.447Z,84.70
2022-11-24T12:17:29.379Z,85.38
2022-11-24T12:18:56.572Z,84.70
2022-11-24T12:19:31.436Z,85.79
2022-11-24T12:20:29.339Z,85.31
2022-11-24T12:21:29.464Z,84.77
2022-11-24T12:22:29.330Z,84.70
2022-11-24T12:23:29.295Z,84.60
2022-11-24T12:24:30.343Z,85.11
2022-11-24T12:25:29.283Z,84.91
2022-11-24T12:26:29.277Z,85.11
2022-11-24T12:27:29.283Z,84.29
2022-11-24T12:28:29.289Z,84.80
2022-11-24T12:29:29.240Z,84.39
2022-11-24T12:30:30.245Z,83.31
2022-11-24T12:31:29.261Z,84.19
2022-11-24T12:32:29.227Z,83.98
2022-11-24T12:33:29.209Z,83.10
2022-11-24T12:34:29.241Z,84.12
2022-11-24T12:35:29.188Z,84.84
2022-11-24T12:36:29.175Z,84.33
2022-11-24T12:37:29.178Z,83.61
2022-11-24T12:38:29.157Z,83.31
2022-11-24T12:39:29.153Z,84.09
2022-11-24T12:40:29.142Z,84.12
2022-11-24T12:41:44.448Z,83.47
2022-11-24T12:42:31.126Z,84.09
2022-11-24T12:43:29.112Z,84.09
2022-11-24T12:44:29.092Z,84.50
2022-11-24T12:45:29.132Z,84.70
2022-11-24T12:46:29.130Z,84.29
2022-11-24T12:47:29.141Z,83.88
2022-11-24T12:48:29.079Z,83.20
2022-11-24T12:49:29.044Z,83.31
2022-11-24T12:50:29.065Z,83.92
2022-11-24T12:51:29.024Z,84.12
2022-11-24T12:52:29.027Z,83.92
2022-11-24T12:53:28.994Z,84.23
2022-11-24T12:54:29.997Z,83.41
2022-11-24T12:55:28.985Z,83.20
2022-11-24T12:56:28.974Z,82.18
2022-11-24T12:57:28.973Z,82.90